sensor_id;sensor_type;location;lat;lon;timestamp;pressure;altitude;pressure_sealevel;temperature;humidity
41573;BME280;27286;47.870;19.006;2022-07-01T00:01:26;98892.56;;;25.69;52.50
41573;BME280;27286;47.870;19.006;2022-07-01T00:03:53;98890.72;;;25.69;52.53
41573;BME280;27286;47.870;19.006;2022-07-01T00:06:18;98894.91;;;25.64;52.82
41573;BME280;27286;47.870;19.006;2022-07-01T00:08:44;98899.59;;;25.54;53.16
41573;BME280;27286;47.870;19.006;2022-07-01T00:11:09;98885.13;;;25.48;52.90
41573;BME280;27286;47.870;19.006;2022-07-01T00:13:35;98886.78;;;25.49;52.91
41573;BME280;27286;47.870;19.006;2022-07-01T00:16:00;98888.63;;;25.48;53.00
41573;BME280;27286;47.870;19.006;2022-07-01T00:18:25;98888.66;;;25.40;53.21
41573;BME280;27286;47.870;19.006;2022-07-01T00:20:51;98895.16;;;25.38;53.57
41573;BME280;27286;47.870;19.006;2022-07-01T00:23:17;98896.47;;;25.34;53.91
41573;BME280;27286;47.870;19.006;2022-07-01T00:25:43;98890.84;;;25.29;53.54
41573;BME280;27286;47.870;19.006;2022-07-01T00:28:09;98899.00;;;25.27;54.19
41573;BME280;27286;47.870;19.006;2022-07-01T00:30:34;98906.81;;;25.29;53.92
41573;BME280;27286;47.870;19.006;2022-07-01T00:33:00;98900.19;;;25.25;53.52
41573;BME280;27286;47.870;19.006;2022-07-01T00:35:25;98907.84;;;25.19;53.97
41573;BME280;27286;47.870;19.006;2022-07-01T00:37:50;98904.84;;;25.14;54.01
41573;BME280;27286;47.870;19.006;2022-07-01T00:40:16;98898.72;;;25.06;54.23
41573;BME280;27286;47.870;19.006;2022-07-01T00:42:42;98910.53;;;25.03;54.08
41573;BME280;27286;47.870;19.006;2022-07-01T00:45:09;98910.16;;;24.98;54.29
41573;BME280;27286;47.870;19.006;2022-07-01T00:47:36;98899.53;;;24.90;54.07
41573;BME280;27286;47.870;19.006;2022-07-01T00:50:05;98903.00;;;24.90;54.54
41573;BME280;27286;47.870;19.006;2022-07-01T00:52:32;98904.69;;;25.00;54.35
41573;BME280;27286;47.870;19.006;2022-07-01T00:54:59;98903.50;;;24.94;54.63
41573;BME280;27286;47.870;19.006;2022-07-01T00:57:30;98907.03;;;24.86;54.59
41573;BME280;27286;47.870;19.006;2022-07-01T00:59:56;98898.34;;;24.76;55.10
41573;BME280;27286;47.870;19.006;2022-07-01T01:02:22;98900.69;;;24.71;55.24
41573;BME280;27286;47.870;19.006;2022-07-01T01:04:48;98903.19;;;24.73;55.37
41573;BME280;27286;47.870;19.006;2022-07-01T01:07:13;98905.00;;;24.72;55.13
41573;BME280;27286;47.870;19.006;2022-07-01T01:09:39;98912.66;;;24.67;55.62
41573;BME280;27286;47.870;19.006;2022-07-01T01:12:05;98906.00;;;24.55;55.53
41573;BME280;27286;47.870;19.006;2022-07-01T01:14:43;98920.31;;;24.54;55.93
41573;BME280;27286;47.870;19.006;2022-07-01T01:17:09;98914.13;;;24.45;55.83
41573;BME280;27286;47.870;19.006;2022-07-01T01:19:34;98920.78;;;24.41;55.76
41573;BME280;27286;47.870;19.006;2022-07-01T01:21:59;98922.78;;;24.39;55.83
41573;BME280;27286;47.870;19.006;2022-07-01T01:24:25;98909.81;;;24.36;56.12
41573;BME280;27286;47.870;19.006;2022-07-01T01:26:50;98922.59;;;24.41;56.08
41573;BME280;27286;47.870;19.006;2022-07-01T01:29:16;98921.44;;;24.43;56.24
41573;BME280;27286;47.870;19.006;2022-07-01T01:31:41;98922.09;;;24.37;56.37
41573;BME280;27286;47.870;19.006;2022-07-01T01:34:07;98921.13;;;24.38;56.44
41573;BME280;27286;47.870;19.006;2022-07-01T01:36:32;98926.44;;;24.38;56.27
41573;BME280;27286;47.870;19.006;2022-07-01T01:38:57;98931.09;;;24.36;55.96
41573;BME280;27286;47.870;19.006;2022-07-01T01:41:29;98927.91;;;24.33;56.26
41573;BME280;27286;47.870;19.006;2022-07-01T01:43:55;98920.25;;;24.29;56.09
41573;BME280;27286;47.870;19.006;2022-07-01T01:46:20;98925.38;;;24.23;56.41
41573;BME280;27286;47.870;19.006;2022-07-01T01:48:46;98923.34;;;24.17;56.98
41573;BME280;27286;47.870;19.006;2022-07-01T01:51:11;98923.66;;;24.14;56.65
41573;BME280;27286;47.870;19.006;2022-07-01T01:53:37;98925.16;;;24.08;57.10
41573;BME280;27286;47.870;19.006;2022-07-01T01:56:02;98925.00;;;24.10;56.80
41573;BME280;27286;47.870;19.006;2022-07-01T01:58:28;98919.84;;;24.08;57.03
41573;BME280;27286;47.870;19.006;2022-07-01T02:00:53;98914.84;;;24.05;56.74
41573;BME280;27286;47.870;19.006;2022-07-01T02:03:18;98906.03;;;24.05;56.75
41573;BME280;27286;47.870;19.006;2022-07-01T02:05:44;98911.34;;;24.05;56.98
41573;BME280;27286;47.870;19.006;2022-07-01T02:08:09;98905.31;;;23.94;57.26
41573;BME280;27286;47.870;19.006;2022-07-01T02:10:35;98904.81;;;23.91;57.52
41573;BME280;27286;47.870;19.006;2022-07-01T02:13:00;98914.97;;;23.95;57.44
41573;BME280;27286;47.870;19.006;2022-07-01T02:15:25;98907.13;;;23.86;57.76
41573;BME280;27286;47.870;19.006;2022-07-01T02:17:51;98915.25;;;23.84;57.50
41573;BME280;27286;47.870;19.006;2022-07-01T02:20:18;98908.59;;;23.80;57.88
41573;BME280;27286;47.870;19.006;2022-07-01T02:22:43;98914.28;;;23.85;57.80
41573;BME280;27286;47.870;19.006;2022-07-01T02:25:09;98915.56;;;23.73;57.80
41573;BME280;27286;47.870;19.006;2022-07-01T02:27:34;98913.22;;;23.70;57.87
41573;BME280;27286;47.870;19.006;2022-07-01T02:30:01;98912.84;;;23.65;58.13
41573;BME280;27286;47.870;19.006;2022-07-01T02:32:27;98903.47;;;23.53;58.08
41573;BME280;27286;47.870;19.006;2022-07-01T02:34:52;98917.03;;;23.50;58.55
41573;BME280;27286;47.870;19.006;2022-07-01T02:37:18;98922.16;;;23.43;58.31
41573;BME280;27286;47.870;19.006;2022-07-01T02:39:43;98916.03;;;23.42;58.98
41573;BME280;27286;47.870;19.006;2022-07-01T02:42:08;98921.00;;;23.46;58.59
41573;BME280;27286;47.870;19.006;2022-07-01T02:44:51;98918.16;;;23.39;59.04
41573;BME280;27286;47.870;19.006;2022-07-01T02:47:17;98931.28;;;23.40;59.58
41573;BME280;27286;47.870;19.006;2022-07-01T02:49:42;98932.28;;;23.39;60.07
41573;BME280;27286;47.870;19.006;2022-07-01T02:52:07;98917.66;;;23.35;59.39
41573;BME280;27286;47.870;19.006;2022-07-01T02:54:33;98920.31;;;23.35;59.81
41573;BME280;27286;47.870;19.006;2022-07-01T02:56:58;98929.78;;;23.38;59.18
41573;BME280;27286;47.870;19.006;2022-07-01T02:59:24;98929.78;;;23.38;59.15
41573;BME280;27286;47.870;19.006;2022-07-01T03:01:49;98933.28;;;23.38;59.27
41573;BME280;27286;47.870;19.006;2022-07-01T03:04:14;98933.72;;;23.34;59.45
41573;BME280;27286;47.870;19.006;2022-07-01T03:06:40;98932.88;;;23.33;59.54
41573;BME280;27286;47.870;19.006;2022-07-01T03:09:06;98928.06;;;23.29;59.50
41573;BME280;27286;47.870;19.006;2022-07-01T03:11:31;98931.53;;;23.29;59.71
41573;BME280;27286;47.870;19.006;2022-07-01T03:13:57;98930.56;;;23.30;59.78
41573;BME280;27286;47.870;19.006;2022-07-01T03:16:22;98935.84;;;23.30;60.15
41573;BME280;27286;47.870;19.006;2022-07-01T03:18:48;98946.56;;;23.38;59.64
41573;BME280;27286;47.870;19.006;2022-07-01T03:21:14;98945.25;;;23.42;59.52
41573;BME280;27286;47.870;19.006;2022-07-01T03:23:39;98949.88;;;23.40;59.61
41573;BME280;27286;47.870;19.006;2022-07-01T03:26:05;98957.63;;;23.34;59.72
41573;BME280;27286;47.870;19.006;2022-07-01T03:28:30;98943.47;;;23.25;59.55
41573;BME280;27286;47.870;19.006;2022-07-01T03:30:57;98960.59;;;23.31;59.71
41573;BME280;27286;47.870;19.006;2022-07-01T03:33:22;98963.72;;;23.26;60.20
41573;BME280;27286;47.870;19.006;2022-07-01T03:35:47;98962.56;;;23.29;60.29
41573;BME280;27286;47.870;19.006;2022-07-01T03:38:13;98958.41;;;23.26;60.25
41573;BME280;27286;47.870;19.006;2022-07-01T03:40:38;98959.59;;;23.32;60.32
41573;BME280;27286;47.870;19.006;2022-07-01T03:43:04;98969.06;;;23.34;59.92
41573;BME280;27286;47.870;19.006;2022-07-01T03:45:30;98969.41;;;23.31;59.96
41573;BME280;27286;47.870;19.006;2022-07-01T03:47:56;98969.72;;;23.28;59.98
41573;BME280;27286;47.870;19.006;2022-07-01T03:50:24;98975.69;;;23.30;60.25
41573;BME280;27286;47.870;19.006;2022-07-01T03:52:50;98980.81;;;23.50;59.94
41573;BME280;27286;47.870;19.006;2022-07-01T03:55:35;98987.63;;;23.70;59.47
41573;BME280;27286;47.870;19.006;2022-07-01T03:58:01;98985.31;;;23.75;59.48
41573;BME280;27286;47.870;19.006;2022-07-01T04:00:26;98984.69;;;23.81;59.49
41573;BME280;27286;47.870;19.006;2022-07-01T04:02:52;98988.31;;;23.80;59.60
41573;BME280;27286;47.870;19.006;2022-07-01T04:05:18;98987.19;;;23.83;59.57
41573;BME280;27286;47.870;19.006;2022-07-01T04:07:43;98991.97;;;23.79;59.91
41573;BME280;27286;47.870;19.006;2022-07-01T04:10:09;98991.00;;;23.80;59.94
41573;BME280;27286;47.870;19.006;2022-07-01T04:12:34;98995.00;;;23.84;60.03
41573;BME280;27286;47.870;19.006;2022-07-01T04:15:00;98980.03;;;23.83;59.98
41573;BME280;27286;47.870;19.006;2022-07-01T04:17:26;98998.53;;;23.93;60.05
41573;BME280;27286;47.870;19.006;2022-07-01T04:19:52;98977.28;;;23.93;60.30
41573;BME280;27286;47.870;19.006;2022-07-01T04:22:17;98990.06;;;23.97;61.11
41573;BME280;27286;47.870;19.006;2022-07-01T04:24:58;98987.09;;;24.00;61.39
41573;BME280;27286;47.870;19.006;2022-07-01T04:27:23;98990.81;;;24.08;60.97
41573;BME280;27286;47.870;19.006;2022-07-01T04:29:48;98986.16;;;24.10;60.97
41573;BME280;27286;47.870;19.006;2022-07-01T04:32:14;98984.50;;;24.17;60.57
41573;BME280;27286;47.870;19.006;2022-07-01T04:34:39;98982.00;;;24.15;60.45
41573;BME280;27286;47.870;19.006;2022-07-01T04:37:05;98989.03;;;24.24;60.47
41573;BME280;27286;47.870;19.006;2022-07-01T04:39:30;98991.56;;;24.34;60.54
41573;BME280;27286;47.870;19.006;2022-07-01T04:41:56;98987.91;;;24.35;60.51
41573;BME280;27286;47.870;19.006;2022-07-01T04:44:24;98994.94;;;24.44;60.24
41573;BME280;27286;47.870;19.006;2022-07-01T04:46:49;98983.97;;;24.47;60.35
41573;BME280;27286;47.870;19.006;2022-07-01T04:49:15;98977.16;;;24.45;59.89
41573;BME280;27286;47.870;19.006;2022-07-01T04:51:40;98987.97;;;24.51;60.16
41573;BME280;27286;47.870;19.006;2022-07-01T04:54:06;98986.84;;;24.54;60.62
41573;BME280;27286;47.870;19.006;2022-07-01T04:56:33;98992.00;;;24.64;60.95
41573;BME280;27286;47.870;19.006;2022-07-01T04:58:59;98991.84;;;24.73;60.58
41573;BME280;27286;47.870;19.006;2022-07-01T05:01:25;98992.84;;;24.80;60.76
41573;BME280;27286;47.870;19.006;2022-07-01T05:03:51;98983.53;;;24.84;60.05
41573;BME280;27286;47.870;19.006;2022-07-01T05:06:16;98990.72;;;24.92;60.25
41573;BME280;27286;47.870;19.006;2022-07-01T05:08:42;98997.59;;;25.03;60.18
41573;BME280;27286;47.870;19.006;2022-07-01T05:11:07;98997.75;;;25.09;60.09
41573;BME280;27286;47.870;19.006;2022-07-01T05:13:33;98988.75;;;25.10;59.62
41573;BME280;27286;47.870;19.006;2022-07-01T05:16:02;98993.91;;;25.20;59.32
41573;BME280;27286;47.870;19.006;2022-07-01T05:18:28;98987.41;;;25.23;59.40
41573;BME280;27286;47.870;19.006;2022-07-01T05:21:20;98998.72;;;25.33;59.00
41573;BME280;27286;47.870;19.006;2022-07-01T05:24:05;99003.06;;;25.42;58.99
41573;BME280;27286;47.870;19.006;2022-07-01T05:26:31;98985.41;;;25.41;59.38
41573;BME280;27286;47.870;19.006;2022-07-01T05:28:56;98989.38;;;25.45;59.11
41573;BME280;27286;47.870;19.006;2022-07-01T05:31:22;98984.38;;;25.50;59.39
41573;BME280;27286;47.870;19.006;2022-07-01T05:33:48;99007.34;;;25.67;59.17
41573;BME280;27286;47.870;19.006;2022-07-01T05:36:14;99011.88;;;25.75;58.89
41573;BME280;27286;47.870;19.006;2022-07-01T05:38:39;99012.19;;;25.80;58.13
41573;BME280;27286;47.870;19.006;2022-07-01T05:41:05;99015.97;;;25.86;58.23
41573;BME280;27286;47.870;19.006;2022-07-01T05:43:31;99014.66;;;25.90;58.08
41573;BME280;27286;47.870;19.006;2022-07-01T05:45:57;99015.63;;;25.97;57.72
41573;BME280;27286;47.870;19.006;2022-07-01T05:48:22;99008.63;;;25.96;57.40
41573;BME280;27286;47.870;19.006;2022-07-01T05:50:49;99015.28;;;26.08;57.27
41573;BME280;27286;47.870;19.006;2022-07-01T05:53:14;99007.09;;;26.09;56.85
41573;BME280;27286;47.870;19.006;2022-07-01T05:55:40;99016.88;;;26.17;57.00
41573;BME280;27286;47.870;19.006;2022-07-01T05:58:05;99022.38;;;26.24;57.17
41573;BME280;27286;47.870;19.006;2022-07-01T06:00:36;99014.84;;;26.27;57.09
41573;BME280;27286;47.870;19.006;2022-07-01T06:03:03;99015.81;;;26.34;57.50
41573;BME280;27286;47.870;19.006;2022-07-01T06:05:28;99016.81;;;26.42;56.80
41573;BME280;27286;47.870;19.006;2022-07-01T06:07:55;99016.47;;;26.45;57.14
41573;BME280;27286;47.870;19.006;2022-07-01T06:10:20;99012.06;;;26.52;56.86
41573;BME280;27286;47.870;19.006;2022-07-01T06:12:46;99017.09;;;26.55;56.71
41573;BME280;27286;47.870;19.006;2022-07-01T06:15:12;99021.53;;;26.62;56.94
41573;BME280;27286;47.870;19.006;2022-07-01T06:17:40;99024.69;;;26.66;56.61
41573;BME280;27286;47.870;19.006;2022-07-01T06:20:06;99032.66;;;26.74;55.33
41573;BME280;27286;47.870;19.006;2022-07-01T06:22:32;99026.97;;;26.77;54.73
41573;BME280;27286;47.870;19.006;2022-07-01T06:24:59;99029.56;;;26.85;54.75
41573;BME280;27286;47.870;19.006;2022-07-01T06:27:25;99030.22;;;26.87;54.52
41573;BME280;27286;47.870;19.006;2022-07-01T06:29:50;99023.53;;;26.91;54.31
41573;BME280;27286;47.870;19.006;2022-07-01T06:32:16;99020.47;;;27.03;54.33
41573;BME280;27286;47.870;19.006;2022-07-01T06:34:41;99022.63;;;27.07;53.78
41573;BME280;27286;47.870;19.006;2022-07-01T06:37:07;99027.44;;;27.12;54.72
41573;BME280;27286;47.870;19.006;2022-07-01T06:39:33;99033.53;;;27.20;54.59
41573;BME280;27286;47.870;19.006;2022-07-01T06:41:59;99029.97;;;27.28;54.85
41573;BME280;27286;47.870;19.006;2022-07-01T06:44:24;99038.63;;;27.30;54.96
41573;BME280;27286;47.870;19.006;2022-07-01T06:46:49;99029.22;;;27.34;54.24
41573;BME280;27286;47.870;19.006;2022-07-01T06:49:15;99032.22;;;27.39;54.13
41573;BME280;27286;47.870;19.006;2022-07-01T06:51:41;99031.31;;;27.47;53.84
41573;BME280;27286;47.870;19.006;2022-07-01T06:54:06;99029.75;;;27.52;53.62
41573;BME280;27286;47.870;19.006;2022-07-01T06:56:31;99025.41;;;27.51;53.95
41573;BME280;27286;47.870;19.006;2022-07-01T06:58:57;99040.03;;;27.64;53.61
41573;BME280;27286;47.870;19.006;2022-07-01T07:01:24;99034.31;;;27.67;53.22
41573;BME280;27286;47.870;19.006;2022-07-01T07:03:50;99028.59;;;27.70;52.79
41573;BME280;27286;47.870;19.006;2022-07-01T07:06:15;99037.56;;;27.77;52.50
41573;BME280;27286;47.870;19.006;2022-07-01T07:08:41;99031.84;;;27.80;52.48
41573;BME280;27286;47.870;19.006;2022-07-01T07:11:06;99030.47;;;27.84;52.37
41573;BME280;27286;47.870;19.006;2022-07-01T07:13:37;99033.06;;;27.92;52.16
41573;BME280;27286;47.870;19.006;2022-07-01T07:16:03;99035.63;;;28.00;51.43
41573;BME280;27286;47.870;19.006;2022-07-01T07:18:29;99031.94;;;28.01;51.05
41573;BME280;27286;47.870;19.006;2022-07-01T07:20:54;99029.56;;;28.06;51.61
41573;BME280;27286;47.870;19.006;2022-07-01T07:23:20;99036.66;;;28.14;51.63
41573;BME280;27286;47.870;19.006;2022-07-01T07:25:45;99032.41;;;28.20;51.95
41573;BME280;27286;47.870;19.006;2022-07-01T07:28:11;99031.72;;;28.26;51.35
41573;BME280;27286;47.870;19.006;2022-07-01T07:30:37;99032.78;;;28.31;50.79
41573;BME280;27286;47.870;19.006;2022-07-01T07:33:03;99033.88;;;28.37;50.94
41573;BME280;27286;47.870;19.006;2022-07-01T07:35:29;99021.81;;;28.41;50.76
41573;BME280;27286;47.870;19.006;2022-07-01T07:37:54;99033.59;;;28.46;49.90
41573;BME280;27286;47.870;19.006;2022-07-01T07:40:19;99030.16;;;28.53;49.92
41573;BME280;27286;47.870;19.006;2022-07-01T07:42:46;99029.81;;;28.56;49.63
41573;BME280;27286;47.870;19.006;2022-07-01T07:45:13;99030.72;;;28.63;49.34
41573;BME280;27286;47.870;19.006;2022-07-01T07:47:44;99037.34;;;28.67;49.14
41573;BME280;27286;47.870;19.006;2022-07-01T07:50:11;99033.09;;;28.72;48.74
41573;BME280;27286;47.870;19.006;2022-07-01T07:52:37;99032.91;;;28.74;48.84
41573;BME280;27286;47.870;19.006;2022-07-01T07:55:03;99032.34;;;28.79;48.48
41573;BME280;27286;47.870;19.006;2022-07-01T07:57:29;99034.91;;;28.87;48.37
41573;BME280;27286;47.870;19.006;2022-07-01T07:59:55;99033.53;;;28.91;48.31
41573;BME280;27286;47.870;19.006;2022-07-01T08:02:21;99036.25;;;28.97;48.10
41573;BME280;27286;47.870;19.006;2022-07-01T08:04:46;99030.72;;;28.99;47.96
41573;BME280;27286;47.870;19.006;2022-07-01T08:07:12;99024.13;;;29.01;47.48
41573;BME280;27286;47.870;19.006;2022-07-01T08:09:37;99033.09;;;29.09;47.74
41573;BME280;27286;47.870;19.006;2022-07-01T08:12:03;99032.69;;;29.12;47.55
41573;BME280;27286;47.870;19.006;2022-07-01T08:14:29;99031.91;;;29.18;47.58
41573;BME280;27286;47.870;19.006;2022-07-01T08:16:54;99028.03;;;29.20;47.55
41573;BME280;27286;47.870;19.006;2022-07-01T08:19:20;99015.00;;;29.17;47.31
41573;BME280;27286;47.870;19.006;2022-07-01T08:21:45;99026.63;;;29.24;47.64
41573;BME280;27286;47.870;19.006;2022-07-01T08:24:11;99028.78;;;29.35;46.56
41573;BME280;27286;47.870;19.006;2022-07-01T08:26:36;99023.50;;;29.42;47.46
41573;BME280;27286;47.870;19.006;2022-07-01T08:29:02;99021.91;;;29.48;46.81
41573;BME280;27286;47.870;19.006;2022-07-01T08:31:28;99031.91;;;29.60;47.14
41573;BME280;27286;47.870;19.006;2022-07-01T08:33:53;99022.00;;;29.61;46.94
41573;BME280;27286;47.870;19.006;2022-07-01T08:36:19;99017.31;;;29.70;46.62
41573;BME280;27286;47.870;19.006;2022-07-01T08:38:44;99030.72;;;29.70;45.70
41573;BME280;27286;47.870;19.006;2022-07-01T08:41:09;99030.19;;;29.81;46.12
41573;BME280;27286;47.870;19.006;2022-07-01T08:43:35;99029.38;;;29.87;45.71
41573;BME280;27286;47.870;19.006;2022-07-01T08:46:01;99025.34;;;29.98;45.24
41573;BME280;27286;47.870;19.006;2022-07-01T08:48:28;99033.72;;;30.09;45.49
41573;BME280;27286;47.870;19.006;2022-07-01T08:50:54;99037.03;;;30.11;44.67
41573;BME280;27286;47.870;19.006;2022-07-01T08:53:20;99033.72;;;30.16;44.95
41573;BME280;27286;47.870;19.006;2022-07-01T08:55:45;99034.97;;;30.20;43.91
41573;BME280;27286;47.870;19.006;2022-07-01T08:58:29;99028.84;;;30.26;44.44
41573;BME280;27286;47.870;19.006;2022-07-01T09:03:39;99019.31;;;30.23;43.91
41573;BME280;27286;47.870;19.006;2022-07-01T09:06:17;99023.47;;;30.33;43.68
41573;BME280;27286;47.870;19.006;2022-07-01T09:08:43;99034.66;;;30.36;44.50
41573;BME280;27286;47.870;19.006;2022-07-01T09:14:05;99025.53;;;30.31;43.48
41573;BME280;27286;47.870;19.006;2022-07-01T09:16:39;99021.63;;;30.33;43.18
41573;BME280;27286;47.870;19.006;2022-07-01T09:19:05;99014.59;;;30.32;42.60
41573;BME280;27286;47.870;19.006;2022-07-01T09:21:31;99022.03;;;30.30;42.84
41573;BME280;27286;47.870;19.006;2022-07-01T09:23:58;99028.66;;;30.34;43.17
41573;BME280;27286;47.870;19.006;2022-07-01T09:26:27;99024.31;;;30.33;44.02
41573;BME280;27286;47.870;19.006;2022-07-01T09:28:54;99021.81;;;30.32;43.75
41573;BME280;27286;47.870;19.006;2022-07-01T09:31:20;99011.91;;;30.32;43.63
41573;BME280;27286;47.870;19.006;2022-07-01T09:34:02;99018.94;;;30.33;43.60
41573;BME280;27286;47.870;19.006;2022-07-01T09:36:28;99006.53;;;30.32;43.18
41573;BME280;27286;47.870;19.006;2022-07-01T09:38:53;99014.03;;;30.43;43.34
41573;BME280;27286;47.870;19.006;2022-07-01T09:41:22;99004.97;;;30.51;42.75
41573;BME280;27286;47.870;19.006;2022-07-01T09:43:49;99011.84;;;30.67;41.21
41573;BME280;27286;47.870;19.006;2022-07-01T09:46:16;99010.41;;;30.71;39.80
41573;BME280;27286;47.870;19.006;2022-07-01T09:48:43;99013.34;;;30.76;37.82
41573;BME280;27286;47.870;19.006;2022-07-01T09:51:10;99011.28;;;30.84;36.91
41573;BME280;27286;47.870;19.006;2022-07-01T09:53:36;98996.84;;;30.92;35.49
41573;BME280;27286;47.870;19.006;2022-07-01T09:56:02;99003.69;;;31.08;36.34
41573;BME280;27286;47.870;19.006;2022-07-01T09:58:28;99006.38;;;31.14;35.66
41573;BME280;27286;47.870;19.006;2022-07-01T10:00:54;99010.34;;;31.25;34.94
41573;BME280;27286;47.870;19.006;2022-07-01T10:03:21;98997.69;;;31.39;35.43
41573;BME280;27286;47.870;19.006;2022-07-01T10:05:49;99012.59;;;31.48;34.23
41573;BME280;27286;47.870;19.006;2022-07-01T10:08:46;99007.00;;;31.56;35.73
41573;BME280;27286;47.870;19.006;2022-07-01T10:13:43;98993.16;;;31.59;33.65
41573;BME280;27286;47.870;19.006;2022-07-01T10:16:09;99006.59;;;31.66;33.17
41573;BME280;27286;47.870;19.006;2022-07-01T10:18:35;98990.84;;;31.56;33.70
41573;BME280;27286;47.870;19.006;2022-07-01T10:21:01;98983.19;;;31.66;34.46
41573;BME280;27286;47.870;19.006;2022-07-01T10:23:37;98991.91;;;31.62;34.54
41573;BME280;27286;47.870;19.006;2022-07-01T10:26:04;98982.56;;;31.58;34.30
41573;BME280;27286;47.870;19.006;2022-07-01T10:31:15;98981.94;;;31.82;33.19
41573;BME280;27286;47.870;19.006;2022-07-01T10:41:56;98983.50;;;32.16;31.15
41573;BME280;27286;47.870;19.006;2022-07-01T10:44:24;98980.56;;;32.24;32.65
41573;BME280;27286;47.870;19.006;2022-07-01T10:46:56;98977.00;;;32.37;33.13
41573;BME280;27286;47.870;19.006;2022-07-01T10:52:04;98977.72;;;32.64;32.36
41573;BME280;27286;47.870;19.006;2022-07-01T11:00:42;98967.31;;;32.29;31.71
41573;BME280;27286;47.870;19.006;2022-07-01T11:02:43;98975.13;;;32.38;31.67
41573;BME280;27286;47.870;19.006;2022-07-01T11:05:10;98967.66;;;32.40;30.73
41573;BME280;27286;47.870;19.006;2022-07-01T11:07:38;98971.00;;;32.35;31.11
41573;BME280;27286;47.870;19.006;2022-07-01T11:10:08;98963.09;;;32.40;30.69
41573;BME280;27286;47.870;19.006;2022-07-01T11:12:34;98969.03;;;32.55;31.22
41573;BME280;27286;47.870;19.006;2022-07-01T11:15:01;98976.50;;;32.60;30.68
41573;BME280;27286;47.870;19.006;2022-07-01T11:17:28;98975.19;;;32.69;31.29
41573;BME280;27286;47.870;19.006;2022-07-01T11:19:58;98969.94;;;32.74;30.99
41573;BME280;27286;47.870;19.006;2022-07-01T11:22:25;98970.59;;;32.76;31.20
41573;BME280;27286;47.870;19.006;2022-07-01T11:24:58;98962.88;;;32.86;30.93
41573;BME280;27286;47.870;19.006;2022-07-01T11:27:25;98958.88;;;32.96;30.20
41573;BME280;27286;47.870;19.006;2022-07-01T11:29:56;98935.03;;;32.93;30.40
41573;BME280;27286;47.870;19.006;2022-07-01T11:32:33;98967.56;;;32.98;28.78
41573;BME280;27286;47.870;19.006;2022-07-01T11:34:59;98945.06;;;33.10;28.57
41573;BME280;27286;47.870;19.006;2022-07-01T11:37:30;98946.50;;;33.13;27.96
41573;BME280;27286;47.870;19.006;2022-07-01T11:40:17;98953.47;;;33.20;28.69
41573;BME280;27286;47.870;19.006;2022-07-01T11:42:44;98927.06;;;33.29;27.94
41573;BME280;27286;47.870;19.006;2022-07-01T11:45:22;98945.28;;;33.34;28.63
41573;BME280;27286;47.870;19.006;2022-07-01T11:47:48;98951.50;;;33.34;30.17
41573;BME280;27286;47.870;19.006;2022-07-01T11:50:14;98934.19;;;33.42;29.85
41573;BME280;27286;47.870;19.006;2022-07-01T11:52:41;98929.44;;;33.62;29.64
41573;BME280;27286;47.870;19.006;2022-07-01T11:55:06;98934.47;;;33.77;29.06
41573;BME280;27286;47.870;19.006;2022-07-01T11:57:32;98936.56;;;33.75;29.47
41573;BME280;27286;47.870;19.006;2022-07-01T12:00:08;98931.41;;;33.92;28.66
41573;BME280;27286;47.870;19.006;2022-07-01T12:02:35;98913.50;;;33.97;29.04
41573;BME280;27286;47.870;19.006;2022-07-01T12:05:01;98917.06;;;33.91;29.06
41573;BME280;27286;47.870;19.006;2022-07-01T12:07:27;98925.03;;;33.86;28.04
41573;BME280;27286;47.870;19.006;2022-07-01T12:09:53;98918.66;;;33.80;28.88
41573;BME280;27286;47.870;19.006;2022-07-01T12:12:21;98916.53;;;33.83;28.59
41573;BME280;27286;47.870;19.006;2022-07-01T12:14:52;98911.25;;;33.94;28.80
41573;BME280;27286;47.870;19.006;2022-07-01T12:17:17;98905.22;;;34.11;28.81
41573;BME280;27286;47.870;19.006;2022-07-01T12:19:44;98899.72;;;34.17;28.63
41573;BME280;27286;47.870;19.006;2022-07-01T12:22:16;98896.34;;;34.22;28.51
41573;BME280;27286;47.870;19.006;2022-07-01T12:24:46;98908.25;;;34.32;27.47
41573;BME280;27286;47.870;19.006;2022-07-01T12:27:12;98896.25;;;34.58;26.74
41573;BME280;27286;47.870;19.006;2022-07-01T12:29:48;98907.56;;;34.67;27.23
41573;BME280;27286;47.870;19.006;2022-07-01T12:32:19;98895.41;;;34.58;27.06
41573;BME280;27286;47.870;19.006;2022-07-01T12:35:03;98898.66;;;34.78;27.87
41573;BME280;27286;47.870;19.006;2022-07-01T12:37:34;98895.19;;;35.13;26.82
41573;BME280;27286;47.870;19.006;2022-07-01T12:42:55;98881.50;;;36.18;25.08
41573;BME280;27286;47.870;19.006;2022-07-01T12:45:25;98889.69;;;37.14;23.63
41573;BME280;27286;47.870;19.006;2022-07-01T12:47:53;98872.84;;;38.70;21.90
41573;BME280;27286;47.870;19.006;2022-07-01T12:50:27;98863.84;;;39.96;20.97
41573;BME280;27286;47.870;19.006;2022-07-01T12:55:57;98867.31;;;42.29;18.08
41573;BME280;27286;47.870;19.006;2022-07-01T12:58:26;98869.59;;;42.95;17.18
41573;BME280;27286;47.870;19.006;2022-07-01T13:00:54;98856.88;;;43.57;16.50
41573;BME280;27286;47.870;19.006;2022-07-01T13:03:25;98873.09;;;43.96;14.18
41573;BME280;27286;47.870;19.006;2022-07-01T13:05:52;98872.16;;;44.06;14.60
41573;BME280;27286;47.870;19.006;2022-07-01T13:08:18;98862.81;;;44.45;14.19
41573;BME280;27286;47.870;19.006;2022-07-01T13:10:45;98859.09;;;45.33;14.63
41573;BME280;27286;47.870;19.006;2022-07-01T13:13:11;98869.97;;;45.24;14.77
41573;BME280;27286;47.870;19.006;2022-07-01T13:15:37;98865.13;;;45.49;15.00
41573;BME280;27286;47.870;19.006;2022-07-01T13:18:04;98862.41;;;45.99;14.75
41573;BME280;27286;47.870;19.006;2022-07-01T13:20:29;98854.78;;;46.09;13.49
41573;BME280;27286;47.870;19.006;2022-07-01T13:22:55;98852.63;;;46.20;14.41